Jerseyville, IL (62052)

7:08 AM CST on December 05, 2016 (GMT -0600)
North East Jerseyville | | Change Station

Elev 623 ft 39.13 °N, 90.32 °W | Updated 14 seconds ago

Overcast
Overcast
34.2 °F
Feels Like 34 °F
N
2.0
Wind Variable Wind from SSW
Gusts 2.5 mph

Today
High -- | Low -- °F
--% Chance of Precip.
Yesterday
High -- | Low -- °F
Precip. -- in
Pressure 30.06 in
Visibility 6.0 miles
Clouds Overcast 1500 ft
Windchill 34 °F
Dew Point 32 °F
Humidity 93%
Rainfall 0.00 in
Snow Depth Not available.
7:05 AM 4:38 PM
Waxing Crescent, 31% visible
METAR KSET 051254Z AUTO 14004KT 6SM BR OVC015 02/01 A3005 RMK AO2 SLP177 T00170011
Pressure 30.06 in
Visibility 6.0 miles
Clouds Overcast 1500 ft
Windchill 34 °F
Dew Point 32 °F
Humidity 93%
Rainfall 0.00 in
Snow Depth Not available.
7:05 AM 4:38 PM
Waxing Crescent, 31% visible
METAR KSET 051254Z AUTO 14004KT 6SM BR OVC015 02/01 A3005 RMK AO2 SLP177 T00170011

10-Day Weather Forecast

Almanac

Astronomy

Dec. 05, 2016 Rise Set
Actual Time
Civil Twilight
Nautical Twilight
Astronomical Twilight
Moon
Length of Visible Light
Length of Day
Tomorrow will be .
, % of the Moon is Illuminated

Today's Extremes

State Highs State Lows

Community

WunderPhotos

Upload Photos

1,955,777 photos uploaded!

WunderBlog® & News

Nearby

Air Quality

  Air Quality AQ Index Pollutant
Not available.

Snow Depth

Station Depth Elevation

Earthquake Activity

City Distance Mag. Time & Date
Minimum magnitude displayed is 2.5.

Coastal Water Temperatures

Place Temperature

Stations

Nearby Weather Stations

Station Location Temp. Windchill Dew Point Humidity Wind Precip. Elev Updated Type
                   

Watches & Warnings

There are currently no watches in effect.